バグダッド の空港の天気 - METARとTAF

バグダッド国際空港 ( ORBI / BGW ) - イラク バグダード
飛行場実況気象(Metar)
観測時間02/21 19:00 AST (02/21 16:00 UTC)
風向・風速北北西 1m/s
視程10km以上
天気現象
少しの雲 雲底高度 910m
気温17℃
湿度55%
気圧1017hPa
METARORBI 211600Z 33001KT 9999 FEW030 17/08 Q1017 NOSIG
過去の天気等 Google飛行場航空写真 Wunderground天気予報

過去48時間のMETAR

飛行場予報(TAF)
発表時間: 2/21 19:00 AST (2/21 16:00 UTC)
予報対象時間: 12日21時 AST ~ 22日21時 AST
風向・風速西北西 5m/s
視程8000m
なし
TAF ORBI 211600Z 1218/2218 30010KT 8000 NSC